Time;durP1;ratioP1;P1;durP2;ratioP2;P2;SDS_P1;SDS_P2;PMS_P1;PMS_P2;Temp;Humidity;BMP_temperature;BMP_pressure;BME280_temperature;BME280_humidity;BME280_pressure;Samples;Min_cycle;Max_cycle;Signal;HPM_P1;HPM_P2
2022/07/10 00:01:42;;;;;;;4.35;0.30;;;15.70;99.90;;;;;;4989279;28;20081;-74
2022/07/10 00:04:07;;;;;;;4.13;0.40;;;15.70;99.90;;;;;;4986517;28;20042;-74
2022/07/10 00:06:33;;;;;;;4.82;0.40;;;15.70;99.90;;;;;;4988495;28;20027;-74
2022/07/10 00:08:59;;;;;;;4.85;0.30;;;15.70;99.90;;;;;;4991293;28;20034;-74
2022/07/10 00:11:24;;;;;;;3.08;0.93;;;15.60;99.90;;;;;;4990510;28;20033;-74
2022/07/10 00:13:50;;;;;;;3.67;0.35;;;15.50;99.90;;;;;;4990281;28;20421;-74
2022/07/10 00:16:15;;;;;;;4.95;0.50;;;15.50;99.90;;;;;;4986857;28;20027;-74
2022/07/10 00:18:41;;;;;;;5.00;0.65;;;15.40;99.90;;;;;;4989910;28;20031;-74
2022/07/10 00:21:07;;;;;;;4.63;0.40;;;15.40;99.90;;;;;;4990571;28;20049;-74
2022/07/10 00:23:32;;;;;;;4.70;0.43;;;15.40;99.90;;;;;;4992777;28;20073;-74
2022/07/10 00:25:58;;;;;;;3.65;0.50;;;15.40;99.90;;;;;;4992638;28;20058;-74
2022/07/10 00:28:24;;;;;;;4.10;0.50;;;15.40;99.90;;;;;;4990228;28;20069;-74
2022/07/10 00:30:50;;;;;;;2.47;0.40;;;15.40;99.90;;;;;;4991452;28;20034;-74
2022/07/10 00:33:15;;;;;;;6.72;0.60;;;15.30;99.90;;;;;;4993362;28;20042;-74
2022/07/10 00:35:41;;;;;;;6.55;0.70;;;15.20;99.90;;;;;;4990057;28;20030;-74
2022/07/10 00:38:06;;;;;;;4.75;0.70;;;15.20;99.90;;;;;;4993821;28;20372;-74
2022/07/10 00:40:32;;;;;;;3.47;0.50;;;15.10;99.90;;;;;;4994382;28;20031;-74
2022/07/10 00:42:57;;;;;;;4.18;0.55;;;15.00;99.90;;;;;;4993686;28;20085;-74
2022/07/10 00:45:23;;;;;;;4.20;0.70;;;15.00;99.90;;;;;;4990306;28;20033;-74
2022/07/10 00:47:48;;;;;;;3.38;0.70;;;14.90;99.90;;;;;;4993109;28;20158;-74
2022/07/10 00:50:14;;;;;;;3.53;0.85;;;14.80;99.90;;;;;;4994595;28;20431;-74
2022/07/10 00:52:40;;;;;;;5.22;0.80;;;14.70;99.90;;;;;;4992196;28;20058;-74
2022/07/10 00:55:09;;;;;;;5.38;0.95;;;14.70;99.90;;;;;;4992706;28;20038;-76
2022/07/10 00:57:36;;;;;;;4.10;0.52;;;14.60;99.90;;;;;;4992832;28;20490;-74
2022/07/10 01:00:02;;;;;;;5.65;0.50;;;14.50;99.90;;;;;;4993338;28;20084;-74
2022/07/10 01:02:27;;;;;;;4.03;0.70;;;14.50;99.90;;;;;;4992584;28;20135;-74
2022/07/10 01:04:56;;;;;;;4.35;0.60;;;14.40;99.90;;;;;;4994481;28;20593;-74
2022/07/10 01:07:21;;;;;;;8.07;0.50;;;14.30;99.90;;;;;;4989774;28;20041;-74
2022/07/10 01:09:47;;;;;;;2.75;0.50;;;14.20;99.90;;;;;;4992048;28;20030;-74
2022/07/10 01:12:14;;;;;;;3.63;0.68;;;14.20;99.90;;;;;;4990885;28;20037;-74
2022/07/10 01:14:41;;;;;;;4.78;0.50;;;14.10;99.90;;;;;;4986646;28;20197;-74
2022/07/10 01:17:09;;;;;;;3.47;0.52;;;14.00;99.90;;;;;;4989850;28;20026;-74
2022/07/10 01:19:35;;;;;;;3.42;0.50;;;14.00;99.90;;;;;;4992196;28;20128;-73
2022/07/10 01:22:01;;;;;;;3.88;0.70;;;14.10;99.90;;;;;;4994575;28;20038;-74
2022/07/10 01:24:26;;;;;;;4.18;0.40;;;14.00;99.90;;;;;;4991401;28;20049;-73
2022/07/10 01:26:52;;;;;;;4.85;0.40;;;14.10;99.90;;;;;;4993644;28;20467;-74
2022/07/10 01:29:18;;;;;;;4.43;0.90;;;14.10;99.90;;;;;;4991881;28;20038;-74
2022/07/10 01:31:45;;;;;;;2.92;0.40;;;14.10;99.90;;;;;;4990903;28;20419;-74
2022/07/10 01:34:10;;;;;;;6.35;0.63;;;14.10;99.90;;;;;;4990986;28;20048;-74
2022/07/10 01:36:37;;;;;;;4.63;0.50;;;14.10;99.90;;;;;;4991883;28;20490;-73
2022/07/10 01:39:03;;;;;;;2.03;0.32;;;14.10;99.90;;;;;;4991247;28;20031;-74
2022/07/10 01:41:29;;;;;;;3.83;0.50;;;14.10;99.90;;;;;;4992212;28;20034;-74
2022/07/10 01:43:54;;;;;;;5.47;0.70;;;14.10;99.90;;;;;;4991897;28;20093;-74
2022/07/10 01:46:20;;;;;;;9.35;0.50;;;14.20;99.90;;;;;;4990619;28;20030;-74
2022/07/10 01:48:46;;;;;;;3.67;0.45;;;14.20;99.90;;;;;;4991928;28;20027;-74
2022/07/10 01:51:12;;;;;;;5.13;0.40;;;14.20;99.90;;;;;;4988599;28;20046;-73
2022/07/10 01:53:38;;;;;;;3.30;0.47;;;14.20;99.90;;;;;;4989680;28;20399;-75
2022/07/10 01:56:10;;;;;;;5.93;0.80;;;14.30;99.90;;;;;;4993044;28;20085;-74
2022/07/10 01:58:36;;;;;;;3.03;0.40;;;14.30;99.90;;;;;;4991911;28;20106;-74
2022/07/10 02:01:03;;;;;;;4.20;0.38;;;14.30;99.90;;;;;;4992974;28;20368;-75
2022/07/10 02:06:13;;;;;;;4.18;0.60;;;14.40;99.90;;;;;;4990368;28;20037;-74
2022/07/10 02:08:38;;;;;;;6.50;0.70;;;14.40;99.90;;;;;;4990572;28;20019;-73
2022/07/10 02:11:04;;;;;;;3.58;0.55;;;14.40;99.90;;;;;;4993470;28;20045;-74
2022/07/10 02:13:31;;;;;;;5.00;1.48;;;14.40;99.90;;;;;;4990957;28;20038;-74
2022/07/10 02:15:57;;;;;;;4.78;0.50;;;14.30;99.90;;;;;;4993840;28;20386;-74
2022/07/10 02:18:22;;;;;;;7.90;0.60;;;14.20;99.90;;;;;;4991063;28;20030;-74
2022/07/10 02:20:49;;;;;;;6.13;0.63;;;14.20;99.90;;;;;;4991461;28;20034;-74
2022/07/10 02:23:15;;;;;;;3.78;0.52;;;14.10;99.90;;;;;;4988813;28;20030;-74
2022/07/10 02:25:40;;;;;;;8.93;0.80;;;14.00;99.90;;;;;;4992078;28;20437;-73
2022/07/10 02:28:08;;;;;;;2.95;0.57;;;14.00;99.90;;;;;;4987738;28;20097;-74
2022/07/10 02:30:33;;;;;;;6.50;1.85;;;14.00;99.90;;;;;;4992158;28;20097;-74
2022/07/10 02:32:59;;;;;;;4.05;0.82;;;14.00;99.90;;;;;;4992397;28;20514;-73
2022/07/10 02:35:24;;;;;;;5.45;0.50;;;14.00;99.90;;;;;;4987663;28;20039;-73
2022/07/10 02:37:50;;;;;;;3.30;0.60;;;13.90;99.90;;;;;;4990245;28;20136;-76
2022/07/10 02:40:15;;;;;;;5.68;0.70;;;13.90;99.90;;;;;;4991719;28;20030;-74
2022/07/10 02:42:41;;;;;;;4.10;0.70;;;14.00;99.90;;;;;;4990102;28;20031;-74
2022/07/10 02:45:07;;;;;;;3.30;0.60;;;14.00;99.90;;;;;;4989733;28;20037;-74
2022/07/10 02:47:33;;;;;;;7.00;1.00;;;14.00;99.90;;;;;;4990954;28;20026;-73
2022/07/10 02:49:58;;;;;;;4.13;0.60;;;14.00;99.90;;;;;;4990370;28;20566;-74
2022/07/10 02:52:24;;;;;;;3.92;0.63;;;14.00;99.90;;;;;;4990608;28;20056;-74
2022/07/10 02:54:50;;;;;;;5.75;0.95;;;14.00;99.90;;;;;;4990504;28;20030;-74
2022/07/10 02:57:16;;;;;;;7.00;1.00;;;14.00;99.90;;;;;;4991746;28;20058;-74
2022/07/10 02:59:42;;;;;;;6.25;0.90;;;14.00;99.90;;;;;;4991443;28;20066;-73
2022/07/10 03:02:07;;;;;;;6.07;1.00;;;14.00;99.90;;;;;;4990678;28;20046;-74
2022/07/10 03:04:33;;;;;;;3.90;0.68;;;14.00;99.90;;;;;;4991202;28;20490;-74
2022/07/10 03:06:58;;;;;;;3.70;1.10;;;13.90;99.90;;;;;;4990678;28;20092;-74
2022/07/10 03:09:25;;;;;;;4.88;0.88;;;13.90;99.90;;;;;;4990476;28;20510;-74
2022/07/10 03:11:51;;;;;;;3.88;0.60;;;13.90;99.90;;;;;;4992382;28;20037;-74
2022/07/10 03:14:17;;;;;;;5.00;1.00;;;14.00;99.90;;;;;;4989772;28;20403;-74
2022/07/10 03:16:43;;;;;;;5.70;1.20;;;14.00;99.90;;;;;;4990937;28;20031;-75
2022/07/10 03:19:08;;;;;;;6.57;0.60;;;14.00;99.90;;;;;;4990326;28;20030;-74
2022/07/10 03:21:34;;;;;;;4.30;0.68;;;14.00;99.90;;;;;;4989402;28;20034;-74
2022/07/10 03:24:00;;;;;;;4.70;0.70;;;14.00;99.90;;;;;;4988793;28;20030;-74
2022/07/10 03:26:26;;;;;;;5.57;0.75;;;14.00;99.90;;;;;;4989885;28;20036;-74
2022/07/10 03:28:52;;;;;;;3.60;1.00;;;14.00;99.90;;;;;;4988765;28;20034;-73
2022/07/10 03:31:17;;;;;;;4.03;0.90;;;14.00;99.90;;;;;;4990593;28;20041;-74
2022/07/10 03:33:43;;;;;;;4.43;1.00;;;14.10;99.90;;;;;;4988806;28;20037;-74
2022/07/10 03:36:08;;;;;;;4.00;0.70;;;14.10;99.90;;;;;;4989029;28;20040;-74
2022/07/10 03:38:34;;;;;;;3.10;0.77;;;14.10;99.90;;;;;;4989150;28;20034;-74
2022/07/10 03:40:59;;;;;;;7.70;1.90;;;14.10;99.90;;;;;;4988840;28;20562;-74
2022/07/10 03:43:25;;;;;;;6.20;1.17;;;14.10;99.90;;;;;;4988326;28;20061;-74
2022/07/10 03:45:51;;;;;;;5.45;0.60;;;14.10;99.90;;;;;;4987285;28;20050;-73
2022/07/10 03:48:17;;;;;;;5.25;0.88;;;14.20;99.90;;;;;;4982384;28;20030;-74
2022/07/10 03:50:42;;;;;;;11.00;1.98;;;14.20;99.90;;;;;;4988867;28;20030;-73
2022/07/10 03:53:08;;;;;;;3.63;0.93;;;14.20;99.90;;;;;;4985937;28;20039;-73
2022/07/10 03:55:33;;;;;;;3.90;0.80;;;14.20;99.90;;;;;;4988682;28;20046;-75
2022/07/10 03:58:02;;;;;;;6.15;1.17;;;14.20;99.90;;;;;;4989731;28;20038;-74
2022/07/10 04:00:31;;;;;;;4.55;0.80;;;14.20;99.90;;;;;;4989409;28;20030;-74
2022/07/10 04:03:01;;;;;;;6.72;1.25;;;14.30;99.90;;;;;;4991426;28;20042;-74
2022/07/10 04:05:27;;;;;;;5.03;1.10;;;14.30;99.90;;;;;;4988515;28;20029;-74
2022/07/10 04:07:54;;;;;;;6.38;1.25;;;14.30;99.90;;;;;;4989021;28;20038;-74
2022/07/10 04:10:20;;;;;;;7.07;1.02;;;14.30;99.90;;;;;;4987285;28;20034;-74
2022/07/10 04:12:47;;;;;;;10.90;1.10;;;14.30;99.90;;;;;;4987627;28;20395;-73
2022/07/10 04:15:13;;;;;;;6.20;1.42;;;14.40;99.90;;;;;;4978969;28;20045;-74
2022/07/10 04:17:39;;;;;;;5.43;1.10;;;14.40;99.90;;;;;;4990076;28;20513;-73
2022/07/10 04:20:05;;;;;;;5.78;0.90;;;14.40;99.90;;;;;;4986732;28;20041;-74
2022/07/10 04:22:31;;;;;;;6.95;1.30;;;14.40;99.90;;;;;;4991059;28;20566;-74
2022/07/10 04:24:56;;;;;;;5.55;0.90;;;14.50;99.90;;;;;;4988638;28;20117;-75
2022/07/10 04:27:22;;;;;;;8.43;1.40;;;14.50;99.90;;;;;;4990299;28;20486;-74
2022/07/10 04:29:48;;;;;;;4.28;0.90;;;14.50;99.90;;;;;;4988903;28;20031;-74
2022/07/10 04:32:14;;;;;;;8.10;1.15;;;14.60;99.90;;;;;;4990476;28;20038;-73
2022/07/10 04:34:40;;;;;;;3.40;0.70;;;14.60;99.90;;;;;;4990729;28;20050;-74
2022/07/10 04:37:07;;;;;;;5.30;0.90;;;14.60;99.90;;;;;;4985097;28;20030;-74
2022/07/10 04:39:33;;;;;;;11.82;1.45;;;14.60;99.90;;;;;;4989688;28;20386;-74
2022/07/10 04:41:59;;;;;;;6.88;1.10;;;14.70;99.90;;;;;;4986182;28;20023;-73
2022/07/10 04:44:25;;;;;;;5.95;0.88;;;14.60;99.90;;;;;;4990229;28;20097;-74
2022/07/10 04:46:50;;;;;;;4.20;0.77;;;14.60;99.90;;;;;;4990810;28;20062;-74
2022/07/10 04:49:16;;;;;;;9.05;1.00;;;14.60;99.90;;;;;;4988420;28;20089;-74
2022/07/10 04:51:41;;;;;;;5.80;0.82;;;14.60;99.90;;;;;;4989839;28;20514;-74
2022/07/10 04:54:07;;;;;;;8.68;1.13;;;14.60;99.90;;;;;;4990144;28;20045;-74
2022/07/10 04:56:32;;;;;;;3.70;0.80;;;14.60;99.90;;;;;;4985868;28;20022;-74
2022/07/10 04:58:58;;;;;;;5.68;0.77;;;14.60;99.90;;;;;;4989594;28;20042;-74
2022/07/10 05:01:23;;;;;;;4.25;0.52;;;14.60;99.90;;;;;;4987681;28;20037;-73
2022/07/10 05:03:49;;;;;;;7.00;0.60;;;14.70;99.90;;;;;;4988448;28;20054;-74
2022/07/10 05:06:15;;;;;;;5.47;0.70;;;14.80;99.90;;;;;;4988203;28;20491;-74
2022/07/10 05:08:40;;;;;;;4.07;0.73;;;14.80;99.90;;;;;;4985798;28;20030;-74
2022/07/10 05:11:06;;;;;;;2.42;0.50;;;14.90;99.90;;;;;;4990966;28;20113;-74
2022/07/10 05:13:31;;;;;;;4.03;0.65;;;15.00;99.90;;;;;;4991799;28;20026;-74
2022/07/10 05:15:57;;;;;;;5.43;0.77;;;15.20;99.90;;;;;;4992856;28;20102;-73
2022/07/10 05:18:23;;;;;;;6.55;0.80;;;15.20;99.90;;;;;;4990825;28;20054;-74
2022/07/10 05:20:49;;;;;;;4.45;0.90;;;15.30;99.90;;;;;;4990027;28;20490;-73
2022/07/10 05:23:16;;;;;;;4.15;0.85;;;15.40;99.90;;;;;;4988783;28;20516;-74
2022/07/10 05:25:41;;;;;;;6.10;0.73;;;15.40;99.90;;;;;;4983363;28;20089;-72
2022/07/10 05:28:08;;;;;;;4.45;0.90;;;15.50;99.90;;;;;;4991144;28;20539;-74
2022/07/10 05:30:34;;;;;;;6.72;0.80;;;15.50;99.90;;;;;;4990305;28;20041;-75
2022/07/10 05:33:00;;;;;;;7.20;0.77;;;15.50;99.90;;;;;;4993914;28;20038;-74
2022/07/10 05:35:26;;;;;;;7.75;0.98;;;15.50;99.90;;;;;;4993737;28;20046;-74
2022/07/10 05:37:52;;;;;;;9.20;1.05;;;15.60;99.90;;;;;;4991167;28;20030;-74
2022/07/10 05:40:18;;;;;;;7.05;1.23;;;15.60;99.90;;;;;;4992227;28;20041;-73
2022/07/10 05:42:44;;;;;;;4.85;0.60;;;15.90;99.90;;;;;;4993097;28;20018;-74
2022/07/10 05:45:10;;;;;;;6.57;1.15;;;16.20;99.90;;;;;;4992553;28;20037;-74
2022/07/10 05:47:36;;;;;;;9.43;0.60;;;16.30;99.90;;;;;;4989235;28;20027;-74
2022/07/10 05:50:02;;;;;;;4.63;0.60;;;16.40;99.90;;;;;;4984559;28;20398;-74
2022/07/10 05:52:27;;;;;;;5.45;0.47;;;16.40;99.90;;;;;;4992740;28;20046;-74
2022/07/10 05:54:53;;;;;;;5.60;0.70;;;16.30;99.90;;;;;;4993336;28;20505;-74
2022/07/10 05:57:19;;;;;;;3.55;0.60;;;16.40;99.90;;;;;;4993139;28;20153;-75
2022/07/10 05:59:44;;;;;;;4.30;0.70;;;16.40;99.90;;;;;;4986542;28;20030;-74
2022/07/10 06:02:10;;;;;;;6.07;0.70;;;16.50;99.90;;;;;;4992751;28;20062;-74
2022/07/10 06:04:36;;;;;;;4.93;0.60;;;16.60;99.90;;;;;;4992092;28;20451;-75
2022/07/10 06:07:02;;;;;;;6.13;0.85;;;16.70;99.90;;;;;;4992876;28;20173;-74
2022/07/10 06:09:27;;;;;;;5.65;0.60;;;16.80;99.90;;;;;;4993143;28;20053;-74
2022/07/10 06:11:53;;;;;;;7.72;1.00;;;16.80;99.90;;;;;;4993377;28;20498;-73
2022/07/10 06:14:18;;;;;;;9.23;0.60;;;16.90;99.90;;;;;;4989910;28;20095;-74
2022/07/10 06:16:44;;;;;;;6.05;0.80;;;16.90;99.90;;;;;;4989839;28;20022;-74
2022/07/10 06:19:09;;;;;;;4.28;0.40;;;16.90;99.90;;;;;;4989963;28;20049;-74
2022/07/10 06:21:35;;;;;;;4.22;0.50;;;17.00;99.90;;;;;;4986408;28;20057;-74
2022/07/10 06:24:01;;;;;;;4.00;0.47;;;17.00;99.90;;;;;;4993009;28;20053;-74
2022/07/10 06:26:26;;;;;;;4.65;0.60;;;17.00;99.90;;;;;;4989843;28;20037;-73
2022/07/10 06:28:52;;;;;;;5.97;0.50;;;17.00;99.90;;;;;;4988486;28;20034;-75
2022/07/10 06:31:17;;;;;;;3.83;0.40;;;16.90;99.90;;;;;;4989694;28;20447;-74
2022/07/10 06:33:43;;;;;;;6.60;0.80;;;16.90;99.90;;;;;;4988278;28;20105;-74
2022/07/10 06:36:08;;;;;;;7.57;0.60;;;16.90;99.90;;;;;;4989205;28;20600;-73
2022/07/10 06:38:34;;;;;;;2.08;0.50;;;17.00;99.90;;;;;;4990057;28;20018;-73
2022/07/10 06:41:00;;;;;;;4.63;0.40;;;16.90;99.90;;;;;;4986108;28;20049;-74
2022/07/10 06:43:26;;;;;;;4.13;0.50;;;16.90;99.90;;;;;;4988699;28;20023;-74
2022/07/10 06:45:51;;;;;;;4.38;0.40;;;16.90;99.90;;;;;;4986286;28;20076;-73
2022/07/10 06:48:18;;;;;;;6.22;0.55;;;16.90;99.90;;;;;;4990406;28;20081;-75
2022/07/10 06:50:44;;;;;;;6.38;0.38;;;16.90;99.90;;;;;;4991596;28;20382;-73
2022/07/10 06:53:10;;;;;;;7.30;0.50;;;16.90;99.90;;;;;;4990013;28;20043;-74
2022/07/10 06:55:35;;;;;;;3.90;0.50;;;17.00;99.90;;;;;;4992415;28;20499;-73
2022/07/10 06:58:02;;;;;;;3.97;0.43;;;17.00;99.90;;;;;;4988579;28;20030;-74
2022/07/10 07:00:27;;;;;;;8.63;0.70;;;17.00;99.90;;;;;;4987210;28;20379;-74
2022/07/10 07:02:53;;;;;;;8.40;0.60;;;17.00;99.90;;;;;;4980100;28;20031;-74
2022/07/10 07:05:19;;;;;;;5.80;0.40;;;17.10;99.90;;;;;;4985917;28;20030;-74
2022/07/10 07:07:44;;;;;;;5.65;0.50;;;17.00;99.90;;;;;;4989691;28;20037;-74
2022/07/10 07:10:10;;;;;;;4.28;0.50;;;17.00;99.90;;;;;;4983171;28;20061;-74
2022/07/10 07:12:36;;;;;;;6.00;0.40;;;17.10;99.90;;;;;;4990024;28;20026;-74
2022/07/10 07:15:02;;;;;;;7.28;0.55;;;17.10;99.90;;;;;;4988092;28;20041;-74
2022/07/10 07:17:35;;;;;;;4.78;0.40;;;17.10;99.90;;;;;;4991146;28;20054;-73
2022/07/10 07:25:29;;;;;;;7.57;0.70;;;17.30;99.90;;;;;;4989441;28;20118;-74
2022/07/10 07:27:55;;;;;;;4.45;0.50;;;17.30;99.90;;;;;;4992094;28;20531;-74
2022/07/10 07:30:20;;;;;;;10.10;1.08;;;17.30;99.90;;;;;;4989683;28;20034;-74
2022/07/10 07:32:47;;;;;;;3.95;0.47;;;17.30;99.90;;;;;;4991470;28;20442;-74
2022/07/10 07:35:14;;;;;;;4.47;0.60;;;17.40;99.90;;;;;;4988275;28;20402;-74
2022/07/10 07:37:48;;;;;;;7.85;0.63;;;17.40;99.90;;;;;;4991713;28;20097;-74
2022/07/10 07:40:19;;;;;;;6.20;0.50;;;17.40;99.90;;;;;;4991397;28;20038;-74
2022/07/10 07:42:45;;;;;;;3.20;0.38;;;17.40;99.90;;;;;;4992299;28;20034;-74
2022/07/10 07:45:10;;;;;;;3.13;0.40;;;17.40;99.90;;;;;;4988984;28;20088;-74
2022/07/10 07:48:07;;;;;;;5.22;0.75;;;17.40;99.90;;;;;;4991138;28;20026;-74
2022/07/10 07:50:34;;;;;;;7.00;0.40;;;17.50;99.90;;;;;;4991680;28;20031;-74
2022/07/10 07:53:01;;;;;;;2.95;0.43;;;17.50;99.90;;;;;;4978935;28;20554;-74
2022/07/10 07:55:28;;;;;;;3.63;0.43;;;17.50;99.90;;;;;;4971448;28;20134;-74
2022/07/10 07:57:55;;;;;;;4.55;0.40;;;17.60;99.90;;;;;;4974535;28;20026;-74
2022/07/10 08:00:22;;;;;;;5.57;0.50;;;17.60;99.90;;;;;;4974024;28;20023;-74
2022/07/10 08:02:49;;;;;;;7.03;0.50;;;17.70;99.90;;;;;;4969144;28;20533;-74
2022/07/10 08:05:15;;;;;;;3.78;0.40;;;17.90;99.90;;;;;;4966692;28;20093;-74
2022/07/10 08:07:51;;;;;;;6.15;0.45;;;18.10;99.90;;;;;;4976055;28;20026;-73
2022/07/10 08:10:19;;;;;;;6.93;0.60;;;18.30;99.90;;;;;;4970848;28;20023;-74
2022/07/10 08:12:46;;;;;;;4.10;0.30;;;18.50;99.90;;;;;;4969721;28;20058;-74
2022/07/10 08:15:14;;;;;;;7.75;0.77;;;18.70;99.90;;;;;;4966702;28;20062;-73
2022/07/10 08:17:39;;;;;;;8.43;0.60;;;18.90;99.90;;;;;;4971975;28;20027;-73
2022/07/10 08:20:07;;;;;;;4.97;0.35;;;19.10;99.90;;;;;;4971010;28;20053;-74
2022/07/10 08:22:33;;;;;;;6.25;0.68;;;19.10;99.90;;;;;;4980551;28;20486;-73
2022/07/10 08:24:59;;;;;;;3.13;0.45;;;19.10;99.90;;;;;;4970173;28;20142;-73
2022/07/10 08:27:25;;;;;;;3.90;0.50;;;19.10;99.90;;;;;;4960995;28;20585;-74
2022/07/10 08:29:51;;;;;;;5.60;0.65;;;19.00;99.90;;;;;;4936457;28;20384;-74
2022/07/10 08:32:16;;;;;;;1.98;0.30;;;19.00;99.90;;;;;;4951275;28;20124;-73
2022/07/10 08:34:42;;;;;;;5.70;0.43;;;18.90;99.90;;;;;;4964223;28;20047;-74
2022/07/10 08:37:08;;;;;;;4.60;0.60;;;18.80;99.90;;;;;;4967354;28;20034;-74
2022/07/10 08:39:33;;;;;;;3.72;0.45;;;18.80;99.90;;;;;;4972087;28;20030;-74
2022/07/10 08:42:00;;;;;;;6.18;0.80;;;18.80;99.90;;;;;;4971159;28;20030;-74
2022/07/10 08:44:26;;;;;;;5.80;0.50;;;18.90;99.90;;;;;;4972679;28;20038;-74
2022/07/10 08:46:51;;;;;;;7.57;0.50;;;19.00;99.90;;;;;;4973505;28;20383;-74
2022/07/10 08:49:19;;;;;;;2.13;0.30;;;19.10;99.90;;;;;;4975155;28;20026;-74
2022/07/10 08:51:52;;;;;;;6.22;0.40;;;19.30;99.90;;;;;;4984786;28;20521;-74
2022/07/10 08:54:19;;;;;;;7.25;0.50;;;19.40;99.90;;;;;;4987101;28;20038;-74
2022/07/10 08:56:46;;;;;;;5.63;0.43;;;19.50;99.90;;;;;;4991790;28;20494;-74
2022/07/10 08:59:14;;;;;;;1.98;0.40;;;19.60;99.90;;;;;;4990528;28;20026;-73
2022/07/10 09:01:40;;;;;;;5.35;0.55;;;19.60;99.90;;;;;;4991262;28;20495;-73
2022/07/10 09:04:06;;;;;;;2.95;0.57;;;19.50;99.90;;;;;;4993322;28;20090;-73
2022/07/10 09:06:31;;;;;;;4.65;0.50;;;19.40;99.90;;;;;;4994206;28;20023;-74
2022/07/10 09:09:05;;;;;;;4.25;0.50;;;19.20;99.90;;;;;;4992515;28;20096;-73
2022/07/10 09:11:32;;;;;;;2.83;0.30;;;19.10;99.90;;;;;;4983658;28;20035;-73
2022/07/10 09:14:00;;;;;;;4.72;0.40;;;19.00;99.90;;;;;;4990321;28;20142;-73
2022/07/10 09:16:32;;;;;;;3.50;0.50;;;18.90;99.90;;;;;;4987473;28;20109;-73
2022/07/10 09:19:15;;;;;;;4.53;0.50;;;18.80;99.90;;;;;;4982972;28;20022;-73
2022/07/10 09:21:41;;;;;;;4.10;0.50;;;18.80;99.90;;;;;;4985498;28;20029;-74
2022/07/10 09:24:08;;;;;;;2.83;0.40;;;18.90;99.90;;;;;;4993030;28;20125;-73
2022/07/10 09:26:38;;;;;;;5.50;0.50;;;19.10;99.90;;;;;;4993159;28;20435;-74
2022/07/10 09:29:11;;;;;;;2.97;0.40;;;19.40;99.90;;;;;;4991217;28;20041;-73
2022/07/10 09:31:53;;;;;;;2.40;0.40;;;19.90;99.90;;;;;;4992214;28;20509;-73
2022/07/10 09:37:42;;;;;;;4.03;0.40;;;20.70;99.90;;;;;;4912331;29;20593;-74
2022/07/10 09:40:08;;;;;;;3.78;0.43;;;20.80;99.30;;;;;;4985243;28;20494;-74
2022/07/10 09:42:36;;;;;;;2.47;0.40;;;20.80;99.10;;;;;;4990793;28;20041;-74
2022/07/10 09:45:17;;;;;;;4.20;0.40;;;20.80;98.60;;;;;;4990365;28;20044;-75
2022/07/10 09:48:04;;;;;;;8.15;0.60;;;20.70;98.70;;;;;;4983465;28;20033;-74
2022/07/10 09:50:35;;;;;;;9.32;1.05;;;20.80;98.60;;;;;;4992418;28;20253;-74
2022/07/10 09:53:01;;;;;;;4.82;0.70;;;20.80;98.30;;;;;;5002131;28;20117;-74
2022/07/10 09:55:30;;;;;;;7.63;1.65;;;20.90;98.50;;;;;;4991039;28;20038;-75
2022/07/10 09:58:01;;;;;;;3.30;0.32;;;21.10;98.10;;;;;;4980639;28;20499;-74
2022/07/10 10:00:35;;;;;;;4.15;0.50;;;21.20;97.50;;;;;;4990263;28;20038;-74
2022/07/10 10:03:06;;;;;;;2.80;0.32;;;21.10;97.30;;;;;;4992440;28;20096;-75
2022/07/10 10:05:36;;;;;;;5.38;0.93;;;21.00;97.10;;;;;;4985762;28;20030;-75
2022/07/10 10:08:10;;;;;;;1.95;0.40;;;21.00;97.20;;;;;;4991372;28;20450;-75
2022/07/10 10:10:40;;;;;;;5.03;0.43;;;20.90;96.90;;;;;;4989330;28;20018;-75
2022/07/10 10:13:10;;;;;;;2.78;0.40;;;20.90;97.10;;;;;;4987928;28;20121;-75
2022/07/10 10:15:36;;;;;;;4.93;0.30;;;21.00;97.20;;;;;;4988630;28;20038;-74
2022/07/10 10:18:02;;;;;;;3.53;0.40;;;21.20;97.10;;;;;;4992047;28;20558;-74
2022/07/10 10:20:41;;;;;;;4.32;0.40;;;21.50;97.20;;;;;;4992215;28;20132;-74
2022/07/10 10:23:12;;;;;;;3.55;0.40;;;21.70;96.40;;;;;;4993215;28;20101;-74
2022/07/10 10:25:40;;;;;;;2.08;0.50;;;21.90;96.00;;;;;;4987835;28;20022;-74
2022/07/10 10:28:08;;;;;;;1.85;0.30;;;22.00;95.50;;;;;;4989589;28;20026;-75
2022/07/10 10:30:38;;;;;;;2.60;0.40;;;22.10;95.20;;;;;;4992736;28;20034;-74
2022/07/10 10:33:03;;;;;;;2.53;0.40;;;22.10;94.60;;;;;;4991705;28;20111;-74
2022/07/10 10:35:43;;;;;;;4.78;0.43;;;22.20;94.80;;;;;;4992517;28;20042;-75
2022/07/10 10:38:09;;;;;;;2.53;0.40;;;22.20;94.40;;;;;;4989032;28;20648;-75
2022/07/10 10:40:36;;;;;;;1.60;0.30;;;22.40;94.30;;;;;;4986780;28;20129;-73
2022/07/10 10:43:18;;;;;;;4.35;0.30;;;22.60;94.20;;;;;;4984262;28;20022;-73
2022/07/10 10:45:44;;;;;;;1.98;0.30;;;22.70;93.80;;;;;;4989786;28;20470;-74
2022/07/10 10:48:12;;;;;;;2.58;0.43;;;22.80;93.30;;;;;;4983013;28;20706;-72
2022/07/10 10:50:51;;;;;;;2.22;0.30;;;22.90;93.30;;;;;;4991029;28;20475;-74
2022/07/10 10:53:26;;;;;;;4.68;0.40;;;22.90;93.10;;;;;;4991164;28;20053;-73
2022/07/10 10:56:21;;;;;;;2.33;0.40;;;22.90;92.80;;;;;;4991438;28;20106;-73
2022/07/10 10:58:46;;;;;;;1.17;0.30;;;22.90;92.50;;;;;;4989791;28;20030;-74
2022/07/10 11:01:24;;;;;;;3.58;0.38;;;22.90;92.50;;;;;;4991100;28;20442;-74
2022/07/10 11:04:14;;;;;;;3.28;0.30;;;23.00;92.10;;;;;;4992567;28;20030;-74
2022/07/10 11:06:43;;;;;;;3.25;0.40;;;23.10;92.00;;;;;;4979226;28;20034;-75
2022/07/10 11:09:31;;;;;;;2.20;0.30;;;23.10;91.60;;;;;;4991257;28;20109;-74
2022/07/10 11:12:07;;;;;;;7.35;0.50;;;23.00;91.60;;;;;;4990747;28;20030;-73
2022/07/10 11:14:37;;;;;;;3.28;0.22;;;22.90;91.70;;;;;;4991898;28;20391;-73
2022/07/10 11:17:04;;;;;;;2.45;0.30;;;22.80;91.50;;;;;;4987391;28;20023;-74
2022/07/10 11:19:32;;;;;;;1.90;0.20;;;22.70;91.50;;;;;;4991249;28;20053;-73
2022/07/10 11:22:06;;;;;;;2.50;0.50;;;22.60;91.50;;;;;;4990063;28;20014;-74
2022/07/10 11:24:48;;;;;;;2.03;0.32;;;22.60;91.60;;;;;;4992061;28;20026;-74
2022/07/10 11:27:51;;;;;;;1.95;0.38;;;22.70;91.90;;;;;;4990509;28;20142;-74
2022/07/10 11:30:16;;;;;;;2.15;0.40;;;23.20;91.80;;;;;;4984709;28;20497;-74
2022/07/10 11:32:42;;;;;;;2.38;0.40;;;23.50;91.30;;;;;;4989312;28;20129;-74
2022/07/10 11:35:14;;;;;;;1.42;0.30;;;23.50;90.70;;;;;;4988068;28;20073;-73
2022/07/10 11:37:52;;;;;;;;;;;23.40;90.30;;;;;;4983089;28;20033;-73
2022/07/10 11:40:21;;;;;;;1.60;0.20;;;23.10;90.70;;;;;;4986706;28;19910;-73
2022/07/10 11:42:55;;;;;;;3.53;0.30;;;23.00;90.80;;;;;;4988922;28;20030;-74
2022/07/10 11:45:33;;;;;;;1.80;0.40;;;22.70;90.90;;;;;;4988722;28;20589;-73
2022/07/10 11:47:59;;;;;;;1.15;0.30;;;22.30;90.90;;;;;;4990778;28;20363;-73
2022/07/10 11:50:26;;;;;;;1.70;0.30;;;21.90;91.50;;;;;;4990420;28;20029;-74
2022/07/10 11:52:54;;;;;;;5.07;0.40;;;21.70;92.00;;;;;;4988147;28;20046;-73
2022/07/10 11:55:21;;;;;;;1.42;0.38;;;21.50;92.40;;;;;;4986306;28;20073;-74
2022/07/10 11:57:50;;;;;;;2.42;0.40;;;21.50;92.60;;;;;;4984449;28;20031;-74
2022/07/10 12:00:27;;;;;;;3.63;0.30;;;21.40;92.70;;;;;;4989710;28;20952;-74
2022/07/10 12:02:54;;;;;;;1.02;0.30;;;21.50;92.90;;;;;;4989654;28;20394;-74
2022/07/10 12:05:38;;;;;;;1.88;0.30;;;21.60;92.80;;;;;;4991502;28;20034;-75
2022/07/10 12:08:04;;;;;;;1.75;0.28;;;21.80;92.80;;;;;;4991048;28;21952;-75
2022/07/10 12:10:31;;;;;;;2.50;0.30;;;22.00;92.80;;;;;;4992308;28;20057;-74
2022/07/10 12:13:08;;;;;;;1.63;0.32;;;22.30;92.80;;;;;;4989232;28;20368;-74
2022/07/10 12:15:37;;;;;;;1.58;0.30;;;22.70;92.30;;;;;;4986461;28;20100;-75
2022/07/10 12:18:14;;;;;;;2.42;0.40;;;23.00;91.70;;;;;;4990539;28;20109;-75
2022/07/10 12:20:45;;;;;;;1.27;0.30;;;23.10;91.20;;;;;;4996843;28;20057;-74
2022/07/10 12:23:11;;;;;;;2.42;0.40;;;23.00;91.10;;;;;;4994189;28;20379;-74
2022/07/10 12:25:37;;;;;;;3.42;0.40;;;22.90;91.00;;;;;;4995447;28;20025;-75
2022/07/10 12:28:03;;;;;;;1.85;0.40;;;22.80;91.00;;;;;;4993957;28;20438;-74
2022/07/10 12:30:40;;;;;;;2.63;0.40;;;22.70;91.20;;;;;;4994374;28;20046;-72
2022/07/10 12:33:30;;;;;;;1.45;0.30;;;22.60;91.30;;;;;;4993474;28;20479;-73
2022/07/10 12:35:57;;;;;;;4.75;0.40;;;22.60;91.60;;;;;;4994489;28;20041;-72
2022/07/10 12:38:26;;;;;;;1.58;0.30;;;22.70;91.10;;;;;;4993781;28;20035;-75
2022/07/10 12:41:10;;;;;;;1.92;0.30;;;22.80;91.20;;;;;;4995042;28;20406;-74
2022/07/10 12:43:36;;;;;;;1.98;0.30;;;23.00;91.10;;;;;;4993095;28;20014;-75
2022/07/10 12:46:18;;;;;;;2.50;0.30;;;23.10;90.50;;;;;;4993551;28;20031;-75
2022/07/10 12:49:00;;;;;;;2.05;0.40;;;23.20;90.60;;;;;;4992103;28;20026;-75
2022/07/10 12:51:28;;;;;;;1.77;0.40;;;23.40;90.20;;;;;;4994230;28;20410;-74
2022/07/10 12:53:54;;;;;;;3.75;0.30;;;23.50;90.00;;;;;;4994000;28;20273;-75
2022/07/10 12:56:36;;;;;;;2.42;0.40;;;23.70;89.30;;;;;;4993275;28;20038;-75
2022/07/10 12:59:14;;;;;;;5.15;0.32;;;23.80;88.10;;;;;;4990850;28;20038;-75
2022/07/10 13:01:42;;;;;;;2.45;0.40;;;23.80;87.20;;;;;;4989886;28;20026;-74
2022/07/10 13:04:08;;;;;;;1.27;0.20;;;23.70;87.60;;;;;;4991211;28;20050;-74